Time;durP1;ratioP1;P1;durP2;ratioP2;P2;SDS_P1;SDS_P2;PMS_P1;PMS_P2;Temp;Humidity;BMP_temperature;BMP_pressure;BME280_temperature;BME280_humidity;BME280_pressure;Samples;Min_cycle;Max_cycle;Signal;HPM_P1;HPM_P2
2022/06/16 00:00:17;;;;;;;22.67;15.90;;;13.60;99.90;;;;;;5071103;28;20398;-68
2022/06/16 00:02:45;;;;;;;23.58;15.32;;;13.60;99.90;;;;;;5069705;28;20037;-68
2022/06/16 00:05:13;;;;;;;28.60;16.42;;;13.60;99.90;;;;;;5069020;28;20082;-68
2022/06/16 00:07:40;;;;;;;27.20;15.43;;;13.50;99.90;;;;;;5071961;28;20048;-67
2022/06/16 00:10:07;;;;;;;31.80;17.30;;;13.60;99.90;;;;;;5070951;28;20044;-67
2022/06/16 00:12:33;;;;;;;33.55;17.85;;;13.50;99.90;;;;;;5051670;28;20401;-67
2022/06/16 00:14:59;;;;;;;27.55;15.40;;;13.40;99.90;;;;;;5069200;28;20512;-67
2022/06/16 00:17:26;;;;;;;22.02;14.70;;;13.30;99.90;;;;;;5077362;28;20713;-67
2022/06/16 00:19:52;;;;;;;21.80;14.48;;;13.30;99.90;;;;;;5069435;28;20115;-68
2022/06/16 00:22:19;;;;;;;18.02;12.20;;;13.30;99.90;;;;;;5072456;28;20120;-68
2022/06/16 00:24:44;;;;;;;17.70;12.70;;;13.40;99.90;;;;;;5080484;28;20040;-68
2022/06/16 00:27:10;;;;;;;22.00;13.20;;;13.40;99.90;;;;;;5067826;28;20048;-68
2022/06/16 00:29:36;;;;;;;16.55;13.65;;;13.40;99.90;;;;;;5069419;28;20123;-68
2022/06/16 00:32:02;;;;;;;20.85;11.80;;;13.40;99.90;;;;;;5069398;28;20493;-68
2022/06/16 00:34:29;;;;;;;15.90;11.98;;;13.40;99.90;;;;;;5066143;28;20052;-68
2022/06/16 00:36:55;;;;;;;18.17;13.38;;;13.40;99.90;;;;;;5060898;28;20051;-68
2022/06/16 00:39:21;;;;;;;23.45;13.00;;;13.50;99.90;;;;;;5065194;28;20058;-68
2022/06/16 00:41:47;;;;;;;20.55;13.00;;;13.40;99.90;;;;;;5056032;28;20594;-68
2022/06/16 00:44:44;;;;;;;21.92;14.95;;;13.30;99.90;;;;;;5063956;28;20037;-68
2022/06/16 00:47:10;;;;;;;23.48;14.57;;;13.30;99.90;;;;;;5068935;28;20464;-68
2022/06/16 00:49:38;;;;;;;23.65;15.88;;;13.20;99.90;;;;;;5069665;28;20044;-68
2022/06/16 00:52:28;;;;;;;19.60;15.88;;;13.20;99.90;;;;;;5069321;28;20037;-68
2022/06/16 00:55:06;;;;;;;22.23;15.65;;;13.20;99.90;;;;;;5067198;28;20071;-68
2022/06/16 00:57:36;;;;;;;21.98;15.27;;;13.20;99.90;;;;;;5068234;28;20068;-68
2022/06/16 01:02:46;;;;;;;28.73;14.73;;;13.20;99.90;;;;;;5057077;28;20801;-68
2022/06/16 01:05:12;;;;;;;20.38;12.93;;;13.20;99.90;;;;;;5072559;28;20146;-68
2022/06/16 01:07:41;;;;;;;25.27;14.27;;;13.20;99.90;;;;;;5077095;28;20047;-67
2022/06/16 01:10:09;;;;;;;17.65;11.73;;;13.20;99.90;;;;;;5062344;28;20128;-67
2022/06/16 01:16:13;;;;;;;17.58;12.48;;;13.10;99.90;;;;;;5068474;28;20287;-68
2022/06/16 01:18:57;;;;;;;21.77;13.10;;;13.10;99.90;;;;;;5071210;28;20053;-68
2022/06/16 01:21:49;;;;;;;17.50;13.85;;;13.00;99.90;;;;;;5068732;28;20401;-68
2022/06/16 01:24:38;;;;;;;27.00;13.82;;;13.00;99.90;;;;;;5050918;28;20044;-68
2022/06/16 01:27:40;;;;;;;17.45;12.88;;;12.90;99.90;;;;;;5053569;28;20120;-68
2022/06/16 01:30:11;;;;;;;16.85;12.88;;;12.90;99.90;;;;;;5055183;28;20468;-68
2022/06/16 01:32:45;;;;;;;18.05;12.50;;;12.90;99.90;;;;;;5069256;28;20041;-67
2022/06/16 01:35:56;;;;;;;18.60;11.40;;;12.90;99.90;;;;;;5071879;28;20498;-68
2022/06/16 01:38:40;;;;;;;15.82;11.15;;;12.90;99.90;;;;;;5061764;28;20075;-67
2022/06/16 01:41:23;;;;;;;17.48;12.18;;;12.90;99.90;;;;;;5054897;28;20041;-68
2022/06/16 01:44:03;;;;;;;17.40;11.18;;;12.90;99.90;;;;;;5064544;28;20080;-68
2022/06/16 01:46:32;;;;;;;16.48;11.63;;;12.80;99.90;;;;;;5064488;28;20417;-68
2022/06/16 01:49:07;;;;;;;14.45;11.13;;;12.80;99.90;;;;;;5047962;28;20525;-67
2022/06/16 01:52:02;;;;;;;15.52;12.60;;;12.80;99.90;;;;;;5063822;28;20094;-68
2022/06/16 01:54:34;;;;;;;25.25;13.52;;;12.70;99.90;;;;;;5071445;28;20052;-67
2022/06/16 01:57:08;;;;;;;22.17;14.07;;;12.60;99.90;;;;;;5068258;28;20040;-68
2022/06/16 02:00:03;;;;;;;26.23;14.70;;;12.50;99.90;;;;;;5064651;28;20044;-68
2022/06/16 02:02:32;;;;;;;23.85;14.38;;;12.50;99.90;;;;;;5066541;28;20561;-68
2022/06/16 02:05:15;;;;;;;23.73;14.10;;;12.50;99.90;;;;;;5055318;28;20053;-67
2022/06/16 02:08:17;;;;;;;24.15;15.93;;;12.50;99.90;;;;;;5053602;28;20049;-67
2022/06/16 02:10:57;;;;;;;35.08;16.60;;;12.40;99.90;;;;;;5061592;28;20515;-68
2022/06/16 02:13:27;;;;;;;27.63;16.52;;;12.40;99.90;;;;;;5068363;28;20032;-68
2022/06/16 02:16:00;;;;;;;17.80;14.93;;;12.30;99.90;;;;;;5064193;28;20052;-68
2022/06/16 02:18:31;;;;;;;25.80;16.10;;;12.10;99.90;;;;;;5080346;28;20198;-68
2022/06/16 02:21:12;;;;;;;24.17;16.25;;;12.10;99.90;;;;;;5065876;28;20048;-68
2022/06/16 02:23:38;;;;;;;25.73;15.27;;;12.10;99.90;;;;;;5054255;28;20048;-68
2022/06/16 02:26:03;;;;;;;26.55;14.60;;;12.10;99.90;;;;;;5078120;28;20433;-68
2022/06/16 02:28:29;;;;;;;27.20;15.85;;;12.20;99.90;;;;;;5068592;28;20144;-68
2022/06/16 02:31:25;;;;;;;24.13;16.25;;;12.20;99.90;;;;;;5058830;28;20489;-68
2022/06/16 02:34:08;;;;;;;23.45;16.60;;;12.30;99.90;;;;;;5058133;28;20044;-68
2022/06/16 02:36:58;;;;;;;25.95;17.17;;;12.30;99.90;;;;;;5078145;28;20037;-68
2022/06/16 02:39:57;;;;;;;20.33;15.48;;;12.30;99.90;;;;;;5067114;28;20044;-68
2022/06/16 02:42:59;;;;;;;20.20;14.65;;;12.40;99.90;;;;;;5049743;28;20048;-68
2022/06/16 02:45:51;;;;;;;26.25;17.58;;;12.40;99.90;;;;;;5055125;28;20048;-68
2022/06/16 02:48:24;;;;;;;22.50;15.27;;;12.40;99.90;;;;;;5070567;28;20505;-68
2022/06/16 02:51:16;;;;;;;25.15;15.70;;;12.40;99.90;;;;;;5059324;28;20082;-68
2022/06/16 02:54:20;;;;;;;20.80;14.43;;;12.40;99.90;;;;;;5064912;28;20040;-69
2022/06/16 02:56:43;;;;;;;30.75;14.73;;;12.40;99.90;;;;;;5067377;28;20512;-68
2022/06/16 02:59:19;;;;;;;26.38;15.85;;;12.40;99.90;;;;;;5061924;28;20179;-68
2022/06/16 03:01:45;;;;;;;26.27;16.60;;;12.40;99.90;;;;;;5060842;28;20052;-68
2022/06/16 03:04:16;;;;;;;28.23;16.95;;;12.40;99.90;;;;;;5055100;28;20055;-69
2022/06/16 03:06:43;;;;;;;34.10;19.25;;;12.40;99.90;;;;;;5066512;28;20053;-68
2022/06/16 03:09:09;;;;;;;20.20;16.05;;;12.50;99.90;;;;;;5075292;28;20043;-68
2022/06/16 03:11:35;;;;;;;29.35;17.38;;;12.40;99.90;;;;;;5073464;28;20111;-68
2022/06/16 03:14:01;;;;;;;27.98;16.98;;;12.40;99.90;;;;;;5080020;28;20039;-68
2022/06/16 03:16:27;;;;;;;34.72;16.95;;;12.50;99.90;;;;;;5082250;28;20044;-68
2022/06/16 03:18:53;;;;;;;22.33;16.65;;;12.50;99.90;;;;;;5071173;28;20127;-68
2022/06/16 03:21:19;;;;;;;22.52;16.95;;;12.50;99.90;;;;;;5066725;28;20041;-68
2022/06/16 03:23:45;;;;;;;30.50;16.52;;;12.50;99.90;;;;;;5059351;28;20076;-68
2022/06/16 03:26:10;;;;;;;30.83;17.83;;;12.50;99.90;;;;;;5077869;28;20063;-68
2022/06/16 03:28:36;;;;;;;24.35;17.02;;;12.50;99.90;;;;;;5065805;28;20043;-67
2022/06/16 03:31:02;;;;;;;27.98;17.35;;;12.50;99.90;;;;;;5074114;28;20037;-68
2022/06/16 03:33:28;;;;;;;29.83;17.77;;;12.50;99.90;;;;;;5071020;28;20484;-68
2022/06/16 03:35:54;;;;;;;23.13;16.95;;;12.50;99.90;;;;;;5071166;28;20449;-68
2022/06/16 03:41:04;;;;;;;24.33;16.33;;;12.60;99.90;;;;;;5060949;28;20053;-68
2022/06/16 03:43:30;;;;;;;24.40;17.33;;;12.60;99.90;;;;;;5063550;28;20111;-68
2022/06/16 03:45:55;;;;;;;22.05;15.32;;;12.60;99.90;;;;;;5069685;28;20037;-68
2022/06/16 03:48:21;;;;;;;21.88;14.57;;;12.50;99.90;;;;;;5069987;28;20049;-68
2022/06/16 03:50:47;;;;;;;24.85;16.83;;;12.50;99.90;;;;;;5069594;28;20753;-68
2022/06/16 03:53:13;;;;;;;28.63;16.83;;;12.50;99.90;;;;;;5073871;28;20045;-68
2022/06/16 03:55:38;;;;;;;24.27;15.32;;;12.50;99.90;;;;;;5054743;28;20116;-68
2022/06/16 03:58:04;;;;;;;23.83;16.15;;;12.60;99.90;;;;;;5064736;28;20036;-68
2022/06/16 04:00:31;;;;;;;21.08;16.15;;;12.60;99.90;;;;;;5063758;28;20048;-68
2022/06/16 04:05:42;;;;;;;28.00;15.82;;;12.60;99.90;;;;;;5069979;28;20053;-69
2022/06/16 04:08:10;;;;;;;28.50;15.02;;;12.60;99.90;;;;;;5074701;28;20052;-69
2022/06/16 04:10:36;;;;;;;25.23;15.10;;;12.60;99.90;;;;;;5074640;28;20041;-69
2022/06/16 04:13:02;;;;;;;19.52;14.85;;;12.60;99.90;;;;;;5065009;28;20037;-69
2022/06/16 04:15:28;;;;;;;20.67;15.02;;;12.60;99.90;;;;;;5075387;28;20057;-69
2022/06/16 04:17:53;;;;;;;26.75;13.30;;;12.70;99.90;;;;;;5060984;28;20037;-69
2022/06/16 04:20:19;;;;;;;21.20;15.00;;;12.70;99.90;;;;;;5084417;28;20040;-69
2022/06/16 04:22:48;;;;;;;30.60;17.38;;;12.70;99.90;;;;;;5084148;28;20089;-68
2022/06/16 04:25:15;;;;;;;21.88;14.02;;;12.70;99.90;;;;;;5066241;28;20048;-69
2022/06/16 04:27:42;;;;;;;19.13;15.25;;;12.60;99.90;;;;;;5074270;28;20127;-69
2022/06/16 04:30:09;;;;;;;22.77;15.95;;;12.60;99.90;;;;;;5065268;28;20787;-69
2022/06/16 04:32:35;;;;;;;25.13;14.77;;;12.70;99.90;;;;;;5067535;28;20036;-69
2022/06/16 04:35:00;;;;;;;26.70;15.70;;;12.70;99.90;;;;;;5065368;28;20036;-69
2022/06/16 04:37:26;;;;;;;24.20;14.45;;;12.70;99.90;;;;;;5064878;28;20043;-69
2022/06/16 04:39:52;;;;;;;18.38;14.68;;;12.80;99.90;;;;;;5059971;28;20037;-69
2022/06/16 04:42:17;;;;;;;23.90;16.38;;;12.80;99.90;;;;;;5068288;28;20064;-69
2022/06/16 04:44:44;;;;;;;39.92;17.55;;;12.90;99.90;;;;;;5067751;28;20521;-69
2022/06/16 04:47:10;;;;;;;37.45;24.17;;;13.00;99.90;;;;;;5055226;28;20512;-69
2022/06/16 04:49:37;;;;;;;37.20;21.88;;;13.10;99.90;;;;;;5069132;28;20040;-70
2022/06/16 04:52:05;;;;;;;40.05;21.02;;;13.10;99.90;;;;;;5066518;28;20110;-69
2022/06/16 04:54:31;;;;;;;36.70;21.08;;;13.20;99.90;;;;;;5059554;28;20059;-69
2022/06/16 04:56:57;;;;;;;36.45;21.50;;;13.30;99.90;;;;;;5066646;28;20045;-69
2022/06/16 04:59:22;;;;;;;30.15;18.75;;;13.40;99.90;;;;;;5059830;28;20497;-69
2022/06/16 05:01:48;;;;;;;31.40;21.23;;;13.50;99.90;;;;;;5076058;28;20050;-69
2022/06/16 05:04:14;;;;;;;26.65;19.77;;;13.60;99.90;;;;;;5074211;28;20123;-69
2022/06/16 05:06:40;;;;;;;37.00;20.95;;;13.70;99.90;;;;;;5067664;28;20076;-69
2022/06/16 05:09:06;;;;;;;35.38;19.40;;;13.80;99.90;;;;;;5060365;28;20048;-69
2022/06/16 05:11:32;;;;;;;34.40;19.10;;;13.80;99.90;;;;;;5064918;28;20059;-69
2022/06/16 05:14:00;;;;;;;28.65;16.92;;;14.00;99.90;;;;;;5056034;28;20473;-69
2022/06/16 05:16:27;;;;;;;38.95;17.13;;;14.10;99.90;;;;;;5063039;28;20577;-69
2022/06/16 05:18:54;;;;;;;32.50;18.92;;;14.20;99.90;;;;;;5057493;28;20076;-70
2022/06/16 05:21:20;;;;;;;20.52;15.60;;;14.30;99.90;;;;;;5060731;28;20048;-69
2022/06/16 05:23:46;;;;;;;24.08;16.05;;;14.40;99.90;;;;;;5065581;28;20049;-70
2022/06/16 05:26:12;;;;;;;32.78;16.00;;;14.40;99.90;;;;;;5067449;28;20397;-69
2022/06/16 05:28:38;;;;;;;26.05;14.77;;;14.50;99.90;;;;;;5064620;28;20057;-68
2022/06/16 05:31:04;;;;;;;23.10;15.43;;;14.50;99.90;;;;;;5069228;28;20045;-69
2022/06/16 05:33:30;;;;;;;20.60;15.35;;;14.60;99.90;;;;;;5072524;28;20123;-68
2022/06/16 05:35:57;;;;;;;25.35;14.90;;;14.60;99.90;;;;;;5066750;28;20036;-70
2022/06/16 05:38:22;;;;;;;26.25;14.13;;;14.70;99.90;;;;;;5062946;28;20047;-69
2022/06/16 05:41:02;;;;;;;25.90;15.18;;;14.70;99.90;;;;;;5073757;28;20054;-69
2022/06/16 05:43:28;;;;;;;23.13;13.77;;;14.80;99.90;;;;;;5063383;28;20029;-69
2022/06/16 05:45:54;;;;;;;25.83;12.98;;;14.80;99.90;;;;;;5065845;28;20090;-69
2022/06/16 05:48:20;;;;;;;19.30;12.13;;;14.90;99.90;;;;;;5077694;28;20048;-70
2022/06/16 05:50:46;;;;;;;26.73;14.38;;;14.90;99.90;;;;;;5067241;28;20094;-70
2022/06/16 05:53:12;;;;;;;21.00;12.93;;;15.10;99.90;;;;;;5069990;28;20048;-69
2022/06/16 05:55:38;;;;;;;19.80;13.07;;;15.20;99.90;;;;;;5065629;28;20051;-70
2022/06/16 05:58:04;;;;;;;28.33;15.93;;;15.30;99.90;;;;;;5066639;28;20090;-69
2022/06/16 06:00:30;;;;;;;21.67;12.65;;;15.30;99.90;;;;;;5066653;28;20086;-70
2022/06/16 06:02:58;;;;;;;37.22;16.08;;;15.40;99.90;;;;;;5068084;28;20052;-70
2022/06/16 06:05:24;;;;;;;25.30;14.90;;;15.40;99.90;;;;;;5066053;28;20417;-68
2022/06/16 06:18:50;;;;;;;23.10;13.45;;;15.80;99.90;;;;;;5063329;28;20052;-68
2022/06/16 06:21:16;;;;;;;16.10;12.10;;;15.90;99.90;;;;;;5061862;28;20033;-68
2022/06/16 06:23:41;;;;;;;28.77;12.00;;;16.00;99.90;;;;;;5069782;28;20085;-67
2022/06/16 06:26:09;;;;;;;15.80;10.27;;;16.10;99.90;;;;;;5066463;28;20068;-67
2022/06/16 06:28:34;;;;;;;15.85;10.10;;;16.30;99.90;;;;;;5075859;28;20068;-67
2022/06/16 06:31:00;;;;;;;21.40;9.20;;;16.40;99.90;;;;;;5065903;28;20102;-67
2022/06/16 06:33:25;;;;;;;28.65;10.50;;;16.50;99.90;;;;;;5068620;28;20056;-67
2022/06/16 06:35:51;;;;;;;15.93;8.10;;;16.70;99.90;;;;;;5062802;28;20505;-67
2022/06/16 06:38:17;;;;;;;15.63;8.32;;;17.00;99.90;;;;;;5070122;28;20037;-66
2022/06/16 06:40:42;;;;;;;18.48;7.82;;;17.30;99.90;;;;;;5071636;28;20041;-67
2022/06/16 06:43:08;;;;;;;17.45;8.02;;;17.40;99.90;;;;;;5066051;28;20048;-68
2022/06/16 06:45:35;;;;;;;15.48;7.93;;;17.50;99.90;;;;;;5074445;28;20408;-68
2022/06/16 06:48:03;;;;;;;11.23;6.55;;;17.70;99.90;;;;;;5073583;28;20049;-68
2022/06/16 06:50:40;;;;;;;13.90;7.72;;;17.70;99.90;;;;;;5059881;28;20060;-68
2022/06/16 06:53:07;;;;;;;10.65;8.27;;;17.70;99.90;;;;;;5063753;28;20120;-68
2022/06/16 06:55:36;;;;;;;8.77;4.30;;;17.80;99.90;;;;;;5058722;28;20041;-68
2022/06/16 06:58:04;;;;;;;5.78;3.80;;;17.80;99.90;;;;;;5061439;28;20640;-68
2022/06/16 07:00:29;;;;;;;6.28;4.28;;;18.00;99.90;;;;;;5068322;28;20052;-68
2022/06/16 07:02:55;;;;;;;16.40;6.43;;;18.30;99.90;;;;;;5062110;28;20067;-68
2022/06/16 07:05:21;;;;;;;5.20;3.05;;;18.50;99.90;;;;;;5063727;28;20438;-68
2022/06/16 07:07:47;;;;;;;6.18;4.15;;;18.70;99.90;;;;;;5060748;28;20044;-68
2022/06/16 07:10:15;;;;;;;8.73;3.50;;;18.90;99.90;;;;;;5070744;28;20090;-68
2022/06/16 07:12:42;;;;;;;6.32;4.07;;;19.20;99.90;;;;;;5066992;28;20059;-67
2022/06/16 07:15:08;;;;;;;7.70;3.30;;;19.30;99.90;;;;;;5059054;28;20067;-67
2022/06/16 07:17:34;;;;;;;7.45;4.32;;;19.50;99.90;;;;;;5066614;28;20489;-68
2022/06/16 07:19:59;;;;;;;9.13;4.60;;;19.50;99.90;;;;;;5063496;28;20068;-68
2022/06/16 07:22:26;;;;;;;5.88;3.88;;;19.60;99.90;;;;;;5065095;28;20036;-68
2022/06/16 07:24:51;;;;;;;12.43;4.10;;;19.80;99.90;;;;;;5069021;28;20055;-68
2022/06/16 07:27:19;;;;;;;6.60;4.00;;;19.90;99.90;;;;;;5060507;28;20502;-68
2022/06/16 07:29:49;;;;;;;6.20;4.03;;;20.00;99.90;;;;;;5067105;28;20072;-68
2022/06/16 07:32:17;;;;;;;6.35;3.58;;;20.10;99.90;;;;;;5058228;28;20536;-69
2022/06/16 07:34:43;;;;;;;9.43;3.83;;;20.30;99.90;;;;;;5078504;28;20127;-68
2022/06/16 07:37:09;;;;;;;7.53;3.30;;;20.60;99.90;;;;;;5069719;28;20044;-68
2022/06/16 07:39:34;;;;;;;6.03;3.28;;;20.60;97.20;;;;;;5078387;28;20500;-69
2022/06/16 07:42:00;;;;;;;4.38;3.28;;;20.70;95.10;;;;;;5070793;28;20132;-68
2022/06/16 07:44:26;;;;;;;7.00;2.88;;;21.20;99.10;;;;;;5070540;28;20052;-69
2022/06/16 07:46:51;;;;;;;6.07;3.13;;;21.20;93.90;;;;;;5082116;28;20045;-68
2022/06/16 07:49:22;;;;;;;7.63;3.25;;;21.30;93.50;;;;;;5066490;28;20041;-68
2022/06/16 07:51:49;;;;;;;3.63;3.28;;;21.20;84.00;;;;;;5060120;28;20066;-68
2022/06/16 07:54:14;;;;;;;5.63;2.78;;;21.30;87.60;;;;;;5067995;28;20421;-68
2022/06/16 07:56:40;;;;;;;6.85;3.40;;;21.60;80.80;;;;;;5075277;28;20048;-68
2022/06/16 07:59:06;;;;;;;5.05;3.25;;;21.80;84.60;;;;;;5063192;28;20037;-68
2022/06/16 08:01:32;;;;;;;4.22;3.35;;;21.80;82.30;;;;;;5067977;28;20086;-68
2022/06/16 08:04:05;;;;;;;3.88;3.00;;;21.80;82.00;;;;;;5062978;28;20114;-69
2022/06/16 08:06:31;;;;;;;18.90;4.72;;;21.80;78.20;;;;;;5069076;28;20132;-68
2022/06/16 08:08:57;;;;;;;6.15;3.25;;;21.70;76.30;;;;;;5065537;28;20087;-68
2022/06/16 08:14:07;;;;;;;20.40;4.07;;;22.00;75.60;;;;;;5066645;28;20044;-68
2022/06/16 08:16:35;;;;;;;5.68;3.30;;;21.90;70.80;;;;;;5070394;28;20070;-68
2022/06/16 08:19:01;;;;;;;4.13;3.80;;;21.90;75.20;;;;;;5070530;28;20522;-68
2022/06/16 08:21:27;;;;;;;5.70;3.25;;;22.10;70.90;;;;;;5054508;28;20037;-69
2022/06/16 08:23:53;;;;;;;6.57;4.22;;;22.00;72.00;;;;;;5056045;28;20509;-68
2022/06/16 08:26:19;;;;;;;9.50;4.15;;;22.10;73.00;;;;;;5056403;28;20095;-69
2022/06/16 08:28:45;;;;;;;6.65;3.97;;;22.30;71.70;;;;;;5065734;28;20056;-69
2022/06/16 08:31:11;;;;;;;8.50;5.32;;;22.40;71.50;;;;;;5072823;28;20036;-68
2022/06/16 08:33:37;;;;;;;17.15;5.20;;;22.70;66.90;;;;;;5069695;28;20383;-69
2022/06/16 08:36:03;;;;;;;15.63;7.97;;;23.00;67.90;;;;;;5072120;28;20037;-69
2022/06/16 08:38:29;;;;;;;8.87;6.63;;;22.90;65.50;;;;;;5065704;28;20083;-68
2022/06/16 08:41:13;;;;;;;16.27;7.72;;;22.90;66.60;;;;;;5068433;28;20321;-68
2022/06/16 08:44:03;;;;;;;9.25;6.25;;;22.90;66.70;;;;;;5069343;28;20048;-68
2022/06/16 08:46:35;;;;;;;7.35;6.65;;;22.90;64.70;;;;;;5059283;28;20044;-68
2022/06/16 08:49:05;;;;;;;11.98;6.30;;;23.40;65.20;;;;;;5062495;28;20052;-68
2022/06/16 08:51:37;;;;;;;5.88;4.75;;;23.30;63.10;;;;;;5066807;28;20037;-67
2022/06/16 08:54:20;;;;;;;7.47;3.75;;;23.30;64.40;;;;;;5069815;28;20044;-67
2022/06/16 08:57:28;;;;;;;8.23;5.10;;;23.10;63.80;;;;;;5058823;28;20048;-68
2022/06/16 09:00:06;;;;;;;7.30;4.22;;;23.40;60.40;;;;;;5056161;28;20084;-67
2022/06/16 09:02:41;;;;;;;6.00;4.47;;;23.60;62.20;;;;;;5067429;28;20056;-68
2022/06/16 09:05:12;;;;;;;7.07;5.25;;;23.70;61.90;;;;;;5068162;28;20049;-67
2022/06/16 09:08:14;;;;;;;6.63;4.47;;;23.60;60.40;;;;;;5066656;28;20601;-67
2022/06/16 09:11:12;;;;;;;14.27;5.72;;;23.50;60.90;;;;;;5065073;28;20051;-68
2022/06/16 09:14:03;;;;;;;13.20;7.13;;;23.50;58.50;;;;;;5048208;28;20043;-68
2022/06/16 09:16:45;;;;;;;11.82;5.13;;;23.30;62.90;;;;;;5071248;28;20076;-67
2022/06/16 09:19:11;;;;;;;14.25;5.55;;;23.30;62.20;;;;;;5074580;28;20132;-67
2022/06/16 09:22:02;;;;;;;9.60;6.13;;;23.10;62.70;;;;;;5067731;28;20127;-68
2022/06/16 09:24:52;;;;;;;10.15;6.28;;;23.00;61.00;;;;;;5062208;28;20075;-68
2022/06/16 09:27:28;;;;;;;11.32;4.88;;;22.90;62.60;;;;;;5063795;28;20059;-68
2022/06/16 09:29:59;;;;;;;16.08;6.03;;;23.10;63.00;;;;;;5069429;28;20056;-67
2022/06/16 09:32:38;;;;;;;9.63;4.63;;;23.10;62.10;;;;;;5067157;28;20056;-68
2022/06/16 09:35:15;;;;;;;12.32;5.60;;;23.60;62.60;;;;;;5065208;28;20044;-68
2022/06/16 09:37:58;;;;;;;7.78;5.32;;;23.80;60.10;;;;;;5070029;28;20036;-67
2022/06/16 09:40:31;;;;;;;8.25;4.70;;;23.70;58.10;;;;;;5063604;28;20856;-67
2022/06/16 09:43:03;;;;;;;10.88;6.63;;;23.70;62.20;;;;;;5057493;28;20036;-67
2022/06/16 09:45:40;;;;;;;11.23;5.20;;;23.70;61.70;;;;;;5066250;28;20087;-67
2022/06/16 09:48:08;;;;;;;34.58;5.32;;;23.50;63.00;;;;;;5060701;28;20055;-67
2022/06/16 09:50:43;;;;;;;8.55;6.18;;;23.70;63.30;;;;;;5065105;28;20040;-67
2022/06/16 09:53:13;;;;;;;13.38;5.90;;;23.90;61.20;;;;;;5060795;28;20048;-67
2022/06/16 09:55:46;;;;;;;11.10;6.28;;;23.90;61.50;;;;;;5066721;28;20583;-67
2022/06/16 09:58:18;;;;;;;9.65;6.90;;;23.90;60.70;;;;;;5062612;28;20036;-68
2022/06/16 10:00:44;;;;;;;11.02;7.85;;;23.90;64.30;;;;;;5065829;28;20040;-67
2022/06/16 10:03:33;;;;;;;7.22;6.47;;;24.10;62.50;;;;;;5059510;28;20048;-67
2022/06/16 10:06:10;;;;;;;13.15;6.90;;;24.00;61.80;;;;;;5050217;28;20059;-67
2022/06/16 10:08:45;;;;;;;11.97;6.47;;;24.30;63.80;;;;;;5053596;28;20052;-67
2022/06/16 10:11:41;;;;;;;11.55;7.78;;;24.80;62.90;;;;;;5052497;28;20057;-67
2022/06/16 10:14:30;;;;;;;13.27;8.52;;;24.40;59.40;;;;;;5059182;28;20049;-67
2022/06/16 10:16:59;;;;;;;12.55;9.20;;;24.10;60.50;;;;;;5053588;28;20060;-67
2022/06/16 10:19:38;;;;;;;16.23;8.82;;;23.70;61.80;;;;;;5052077;28;20036;-68
2022/06/16 10:22:04;;;;;;;10.60;7.32;;;23.50;61.60;;;;;;5052274;28;20155;-68
2022/06/16 10:24:49;;;;;;;17.42;8.60;;;23.30;63.40;;;;;;5053772;28;20512;-68
2022/06/16 10:27:18;;;;;;;13.57;10.13;;;23.50;62.70;;;;;;5059898;28;20489;-67
2022/06/16 10:29:57;;;;;;;10.30;8.60;;;23.70;64.00;;;;;;5066387;28;20174;-68
2022/06/16 10:32:38;;;;;;;10.02;7.95;;;23.80;61.80;;;;;;5061746;28;20044;-68
2022/06/16 10:35:07;;;;;;;16.60;8.40;;;23.80;65.70;;;;;;5073149;28;20048;-67
2022/06/16 10:37:40;;;;;;;17.58;9.18;;;23.70;63.20;;;;;;5065373;28;20105;-67
2022/06/16 10:40:16;;;;;;;13.85;8.10;;;23.50;63.10;;;;;;5066324;28;20044;-67
2022/06/16 10:42:50;;;;;;;14.05;8.50;;;23.60;63.70;;;;;;5066965;28;20036;-67
2022/06/16 10:45:22;;;;;;;10.90;8.77;;;23.50;66.40;;;;;;5060085;28;20041;-67
2022/06/16 10:47:52;;;;;;;15.80;9.45;;;23.30;63.20;;;;;;5067545;28;20044;-67
2022/06/16 10:50:22;;;;;;;14.75;8.77;;;23.30;66.10;;;;;;5066414;28;20051;-67
2022/06/16 10:53:03;;;;;;;9.95;8.77;;;23.40;66.30;;;;;;5059444;28;20049;-67
2022/06/16 10:55:37;;;;;;;11.55;8.88;;;23.50;65.00;;;;;;5063088;28;20106;-67
2022/06/16 10:58:29;;;;;;;14.32;8.23;;;23.90;63.70;;;;;;5065648;28;20053;-67
2022/06/16 11:01:16;;;;;;;8.32;7.28;;;24.10;65.20;;;;;;5047818;28;20056;-67
2022/06/16 11:03:46;;;;;;;14.68;9.38;;;24.50;62.60;;;;;;5066171;28;20416;-67
2022/06/16 11:06:18;;;;;;;19.77;10.15;;;24.40;61.10;;;;;;5064993;28;20044;-68
2022/06/16 11:09:05;;;;;;;10.30;7.65;;;24.40;60.60;;;;;;5056678;28;20124;-67
2022/06/16 11:11:42;;;;;;;12.43;8.80;;;24.60;63.40;;;;;;5053010;28;20051;-67
2022/06/16 11:14:15;;;;;;;11.20;8.13;;;24.90;61.00;;;;;;5066804;28;20115;-71
2022/06/16 11:16:50;;;;;;;10.93;9.00;;;25.10;62.20;;;;;;5059603;28;20098;-69
2022/06/16 11:19:47;;;;;;;18.05;6.82;;;25.00;61.00;;;;;;5059747;28;20037;-70
2022/06/16 11:22:18;;;;;;;;;;;25.40;61.10;;;;;;5049241;28;20056;-67
2022/06/16 11:25:15;;;;;;;15.93;9.07;;;25.60;60.30;;;;;;5065489;28;19928;-67
2022/06/16 11:28:07;;;;;;;14.75;8.23;;;25.60;58.90;;;;;;5046489;28;20547;-66
2022/06/16 11:30:41;;;;;;;15.10;9.07;;;25.80;60.00;;;;;;5052358;28;20601;-65
2022/06/16 11:36:38;;;;;;;11.23;8.32;;;25.80;60.40;;;;;;5046232;28;20075;-65
2022/06/16 11:39:45;;;;;;;10.10;7.45;;;25.80;58.40;;;;;;5063895;28;20098;-65
2022/06/16 11:42:31;;;;;;;13.07;8.18;;;25.60;57.60;;;;;;5071007;28;20667;-65
2022/06/16 11:45:27;;;;;;;14.97;8.60;;;25.50;58.80;;;;;;5086107;28;20459;-65
2022/06/16 11:48:41;;;;;;;12.52;8.45;;;25.50;59.10;;;;;;5024082;28;20061;-65
2022/06/16 11:51:24;;;;;;;12.00;8.32;;;25.60;58.60;;;;;;5056571;28;20048;-65
2022/06/16 11:54:08;;;;;;;12.50;8.07;;;25.50;59.00;;;;;;5071576;28;20044;-65
2022/06/16 11:57:08;;;;;;;14.13;9.63;;;25.70;58.60;;;;;;5071955;28;20041;-65
2022/06/16 11:59:58;;;;;;;11.35;8.52;;;25.60;56.80;;;;;;5060674;28;20045;-65
2022/06/16 12:02:26;;;;;;;10.65;8.77;;;25.50;58.00;;;;;;5068325;28;20053;-65
2022/06/16 12:05:13;;;;;;;10.10;7.47;;;25.60;57.00;;;;;;5075080;28;20532;-65
2022/06/16 12:07:51;;;;;;;29.17;8.33;;;25.30;57.10;;;;;;5069660;28;20060;-65
2022/06/16 12:10:32;;;;;;;12.48;9.02;;;25.70;56.90;;;;;;5064001;28;20041;-65
2022/06/16 12:13:03;;;;;;;13.73;7.47;;;25.60;56.10;;;;;;5066604;28;20040;-65
2022/06/16 12:15:48;;;;;;;14.23;9.45;;;26.00;57.40;;;;;;5063272;28;20045;-65
2022/06/16 12:18:29;;;;;;;10.85;7.95;;;25.90;54.40;;;;;;5076524;28;20116;-65
2022/06/16 12:21:06;;;;;;;12.82;7.78;;;26.40;55.60;;;;;;5061954;28;20102;-65
2022/06/16 12:23:34;;;;;;;11.48;9.55;;;26.60;54.40;;;;;;5080419;28;20053;-65
2022/06/16 12:26:19;;;;;;;8.68;7.80;;;26.50;53.50;;;;;;5071283;28;20044;-65
2022/06/16 12:29:14;;;;;;;15.30;8.85;;;26.20;51.90;;;;;;5069648;28;20052;-65
2022/06/16 12:32:13;;;;;;;9.82;7.32;;;26.30;52.80;;;;;;5071887;28;20129;-65
2022/06/16 12:34:57;;;;;;;14.13;10.65;;;26.10;53.80;;;;;;5071913;28;20119;-65
2022/06/16 12:37:33;;;;;;;10.77;9.27;;;25.90;53.80;;;;;;5066867;28;20040;-62
2022/06/16 12:40:12;;;;;;;9.15;7.95;;;25.70;54.70;;;;;;5071610;28;20048;-65
2022/06/16 12:43:04;;;;;;;11.27;9.00;;;25.50;54.40;;;;;;5071267;28;20518;-65
2022/06/16 12:45:32;;;;;;;17.48;9.90;;;25.30;57.30;;;;;;5078634;28;20048;-65
2022/06/16 12:48:07;;;;;;;;;;;25.10;57.30;;;;;;5069099;28;20037;-65
2022/06/16 12:50:38;;;;;;;9.25;7.88;;;24.90;56.80;;;;;;5057725;28;19921;-65
2022/06/16 12:53:19;;;;;;;11.50;8.68;;;24.80;57.80;;;;;;5061841;28;20044;-65
2022/06/16 12:55:57;;;;;;;11.85;8.88;;;24.90;57.00;;;;;;5054330;28;20047;-65
2022/06/16 12:58:30;;;;;;;11.98;8.00;;;25.20;55.70;;;;;;5060847;28;20405;-65
2022/06/16 13:01:00;;;;;;;11.57;7.38;;;25.60;55.80;;;;;;5066199;28;20075;-65
2022/06/16 13:03:41;;;;;;;13.63;8.30;;;25.60;56.40;;;;;;5068836;28;20389;-65
2022/06/16 13:06:08;;;;;;;8.90;8.00;;;25.90;55.50;;;;;;5058731;28;20097;-65
2022/06/16 13:08:38;;;;;;;13.13;9.50;;;25.60;56.40;;;;;;5067188;28;20097;-65
2022/06/16 13:11:12;;;;;;;12.90;7.60;;;25.20;56.50;;;;;;5065975;28;20385;-65
2022/06/16 13:13:44;;;;;;;12.95;9.23;;;25.30;56.90;;;;;;5056337;28;20040;-65
2022/06/16 13:16:13;;;;;;;9.50;8.50;;;25.20;56.30;;;;;;5063106;28;20102;-65
2022/06/16 13:18:46;;;;;;;9.40;6.97;;;25.00;55.60;;;;;;5066204;28;20041;-64
2022/06/16 13:21:23;;;;;;;12.07;8.35;;;25.20;57.20;;;;;;5067900;28;20072;-65
2022/06/16 13:23:55;;;;;;;11.50;7.45;;;25.40;55.20;;;;;;5063823;28;20044;-65
2022/06/16 13:26:26;;;;;;;16.42;9.10;;;25.50;55.50;;;;;;5063372;28;20048;-64
2022/06/16 13:29:15;;;;;;;10.68;8.55;;;25.50;53.70;;;;;;5061199;28;20595;-65
2022/06/16 13:31:55;;;;;;;15.02;7.97;;;25.50;54.60;;;;;;5052282;28;20136;-65
2022/06/16 13:34:40;;;;;;;9.25;7.95;;;25.80;55.50;;;;;;5064160;28;20119;-64